Wetterdaten: aktuell Freitag, 13.12.2019 16:00
Datum Zeit Temp. A. Feuchte A. Luftdruck Regen Wind Richtung Richtung Sonnenschein Regendauer Taupunkt Windchill
13.12.2019 16:00 0,3 C 97 % 986,8 hPa 0,0 mm 0,0 km/h (0 Bft) SO 145 0 min 0 min -0,1 C 0,3 C
13.12.2019 15:55 0,3 C 97 % 986,8 hPa 0,0 mm 0,0 km/h (0 Bft) SO 145 0 min 0 min -0,1 C 0,3 C
13.12.2019 15:50 0,3 C 97 % 986,8 hPa 0,0 mm 0,0 km/h (0 Bft) SO 140 0 min 0 min -0,1 C 0,3 C
13.12.2019 15:45 0,3 C 97 % 986,8 hPa 0,0 mm 0,0 km/h (0 Bft) W-NW 285 0 min 0 min -0,1 C 0,3 C
13.12.2019 15:40 0,3 C 97 % 985,8 hPa 0,0 mm 0,0 km/h (0 Bft) SO 140 0 min 0 min -0,1 C 0,3 C
13.12.2019 15:35 0,3 C 97 % 985,8 hPa 0,0 mm 0,0 km/h (0 Bft) S-SO 150 0 min 0 min -0,1 C 0,3 C
13.12.2019 15:30 0,3 C 97 % 985,8 hPa 0,3 mm 0,0 km/h (0 Bft) SO 130 0 min 5 min -0,1 C 0,3 C
13.12.2019 15:25 0,3 C 97 % 985,8 hPa 0,0 mm 0,0 km/h (0 Bft) S 175 0 min 0 min -0,1 C 0,3 C
13.12.2019 15:20 0,3 C 97 % 985,8 hPa 0,3 mm 0,0 km/h (0 Bft) S 170 0 min 5 min -0,1 C 0,3 C
13.12.2019 15:15 0,3 C 97 % 985,8 hPa 0,0 mm 0,0 km/h (0 Bft) SO 145 0 min 5 min -0,1 C 0,3 C
13.12.2019 15:10 0,3 C 97 % 985,8 hPa 0,0 mm 0,0 km/h (0 Bft) SW 230 0 min 5 min -0,1 C 0,3 C
13.12.2019 15:05 0,3 C 97 % 985,8 hPa 0,3 mm 0,0 km/h (0 Bft) S 170 0 min 5 min -0,1 C 0,3 C
13.12.2019 15:00 0,3 C 97 % 985,8 hPa 0,0 mm 0,0 km/h (0 Bft) SO 145 0 min 5 min -0,1 C 0,3 C
13.12.2019 14:55 0,4 C 97 % 985,8 hPa 0,0 mm 0,0 km/h (0 Bft) S-SO 160 0 min 5 min -0,0 C 0,4 C
13.12.2019 14:50 0,2 C 97 % 985,8 hPa 0,3 mm 0,0 km/h (0 Bft) S-SO 165 0 min 5 min -0,2 C 0,2 C
13.12.2019 14:45 0,2 C 97 % 985,8 hPa 0,0 mm 0,0 km/h (0 Bft) SO 125 0 min 5 min -0,2 C 0,2 C
13.12.2019 14:40 0,3 C 97 % 985,8 hPa 0,0 mm 4,8 km/h (1 Bft) S-SO 165 0 min 5 min -0,1 C -1,2 C
13.12.2019 14:35 0,2 C 97 % 985,8 hPa 0,3 mm 5,4 km/h (2 Bft) S-SO 160 0 min 5 min -0,2 C -1,5 C
13.12.2019 14:30 0,2 C 97 % 985,8 hPa 0,0 mm 4,5 km/h (1 Bft) S 190 0 min 5 min -0,2 C 0,2 C
13.12.2019 14:25 0,2 C 96 % 985,8 hPa 0,0 mm 6,1 km/h (2 Bft) SO 140 0 min 5 min -0,4 C -1,8 C
13.12.2019 14:20 0,2 C 96 % 985,8 hPa 0,0 mm 10,9 km/h (2 Bft) S-SO 165 0 min 5 min -0,4 C -3,3 C
13.12.2019 14:15 0,3 C 96 % 985,8 hPa 0,0 mm 7,3 km/h (2 Bft) S 170 0 min 5 min -0,3 C -2,2 C
13.12.2019 14:10 0,4 C 95 % 984,7 hPa 0,0 mm 7,3 km/h (2 Bft) SO 140 0 min 5 min -0,3 C -2,0 C
13.12.2019 14:05 0,6 C 95 % 984,7 hPa 0,0 mm 4,8 km/h (1 Bft) SO 140 0 min 5 min -0,1 C -0,8 C
13.12.2019 14:00 0,9 C 94 % 984,6 hPa 0,0 mm 12,1 km/h (2 Bft) SO 125 0 min 5 min 0,0 C -2,7 C
13.12.2019 13:55 1,4 C 93 % 985,6 hPa 0,0 mm 4,2 km/h (1 Bft) S-SO 150 0 min 0 min 0,4 C 1,4 C
13.12.2019 13:49 1,6 C 92 % 985,5 hPa 0,0 mm 8,2 km/h (2 Bft) S-SO 155 0 min 0 min 0,4 C -0,9 C
13.12.2019 13:44 1,7 C 92 % 985,5 hPa 0,0 mm 8,5 km/h (2 Bft) S 170 0 min 0 min 0,5 C -0,9 C
13.12.2019 13:39 1,8 C 92 % 984,4 hPa 0,0 mm 15,1 km/h (3 Bft) SW 230 0 min 0 min 0,6 C -2,2 C
13.12.2019 13:34 1,8 C 93 % 984,4 hPa 0,0 mm 5,4 km/h (2 Bft) O-SO 115 0 min 0 min 0,8 C 0,3 C
13.12.2019 13:29 1,6 C 93 % 984,5 hPa 0,0 mm 13,3 km/h (3 Bft) S-SO 150 0 min 0 min 0,6 C -2,1 C
13.12.2019 13:24 1,6 C 92 % 984,5 hPa 0,0 mm 13,3 km/h (3 Bft) S-SW 210 0 min 0 min 0,4 C -2,1 C
13.12.2019 13:19 1,6 C 92 % 984,5 hPa 0,0 mm 8,2 km/h (2 Bft) NW 305 0 min 0 min 0,4 C -0,9 C
13.12.2019 13:14 1,7 C 93 % 984,4 hPa 0,0 mm 13,9 km/h (3 Bft) W-SW 240 0 min 0 min 0,7 C -2,1 C
13.12.2019 13:09 1,9 C 93 % 984,4 hPa 0,0 mm 10,0 km/h (2 Bft) W-SW 250 0 min 0 min 0,9 C -1,0 C
13.12.2019 13:05 2,1 C 93 % 984,4 hPa 0,0 mm 7,3 km/h (2 Bft) SO 135 0 min 0 min 1,1 C -0,1 C
13.12.2019 13:00 1,9 C 93 % 984,4 hPa 0,0 mm 0,0 km/h (0 Bft) S-SW 195 0 min 0 min 0,9 C 1,9 C
13.12.2019 12:55 1,8 C 93 % 983,4 hPa 0,0 mm 0,0 km/h (0 Bft) W 260 0 min 0 min 0,8 C 1,8 C
13.12.2019 12:50 2,0 C 93 % 983,3 hPa 0,0 mm 3,9 km/h (1 Bft) SO 130 0 min 0 min 1,0 C 2,0 C
13.12.2019 12:44 2,0 C 93 % 983,3 hPa 0,0 mm 4,2 km/h (1 Bft) S-SO 160 0 min 0 min 1,0 C 2,0 C
13.12.2019 12:39 2,4 C 92 % 983,2 hPa 0,0 mm 4,2 km/h (1 Bft) O 80 0 min 0 min 1,2 C 2,4 C
13.12.2019 12:34 2,2 C 93 % 983,3 hPa 0,0 mm 0,0 km/h (0 Bft) W-NW 285 0 min 0 min 1,2 C 2,2 C
13.12.2019 12:29 2,2 C 93 % 983,3 hPa 0,0 mm 2,1 km/h (1 Bft) W-SW 245 0 min 0 min 1,2 C 2,2 C
13.12.2019 12:24 2,2 C 93 % 983,3 hPa 0,0 mm 0,0 km/h (0 Bft) O-NO 60 0 min 0 min 1,2 C 2,2 C
13.12.2019 12:19 2,2 C 93 % 983,3 hPa 0,0 mm 3,6 km/h (1 Bft) SO 125 0 min 0 min 1,2 C 2,2 C
13.12.2019 12:15 2,2 C 93 % 983,3 hPa 0,0 mm 4,5 km/h (1 Bft) S 175 0 min 0 min 1,2 C 2,2 C
13.12.2019 12:10 2,2 C 93 % 983,3 hPa 0,0 mm 3,0 km/h (1 Bft) SO 145 0 min 0 min 1,2 C 2,2 C
13.12.2019 12:05 2,3 C 92 % 983,3 hPa 0,0 mm 5,4 km/h (2 Bft) SO 130 0 min 0 min 1,1 C 0,9 C
13.12.2019 12:00 2,3 C 92 % 983,3 hPa 0,0 mm 5,4 km/h (2 Bft) SO 145 0 min 0 min 1,1 C 0,9 C
_ Min-Zeit 05:24 11:05 11:09 - 17:04 - - - - 05:24 14:20
Minimum _ -1,7 C 85 % 983,2 hPa - 0,0 km/h (0 Bft) - - - - -2,1 C -3,3 C
_ Max-Zeit 11:09 17:39 17:04 19:04 13:39 - - 17:04 18:54 11:44 11:09
Maximum _ 2,7 C 98 % 1004,8 hPa 0,3 mm 15,1 km/h
SW (3 Bft)
- - 0 min 5 min 1,4 C 2,7 C
Durchschnitt _ 0,4 C 96 % 993,3 hPa #1,6 mm 0,9 km/h (0 Bft) SO - #0 min. #1:30 h -0,2 C 0,2 C